Jepson Prairie Reserve, California Weather observations

Data are for 10 minute period ending at time listed.
 Day   Time   Solar   Ave.   Ave.  Ave.  Vector  Max.   Baro.   Total    
  of    of     Rad.   Air    Rel.  Wind   Wind   Wind  Press.  Precip.   
Year   Day            Temp.  Hum.  Speed  Dir.   Gust                    
2016   (PST)  Kw/m2    F      %     mph   deg.    mph    mb.     in.     
-------------------------------------------------------------------------
 180   16:10   0.57   97.3    23   19.0   213    23.2   1008.8    0.00 
 180   16:20   0.54   96.2    22   19.2   222    24.5   1008.8    0.00 
 180   16:30   0.51   95.9    23   19.0   216    24.5   1008.8    0.00 
 180   16:40   0.48   95.0    23   19.0   217    23.2   1008.5    0.00 
 180   16:50   0.44   95.0    23   18.5   217    22.5   1008.5    0.00 
 180   17:00   0.41   94.7    22   18.5   208    22.6   1008.1    0.00 
 180   17:10   0.39   94.4    22   19.0   212    23.5   1008.1    0.00 
 180   17:20   0.36   93.3    24   19.0   210    24.3   1008.1    0.00 
 180   17:30   0.33   92.5    26   18.7   210    24.1   1008.1    0.00 
 180   17:40   0.29   91.4    26   19.8   207    24.8   1007.8    0.00 
 180   17:50   0.26   90.2    27   18.9   211    24.3   1007.8    0.00 
 180   18:00   0.23   88.8    28   19.7   207    25.4   1007.8    0.00 
 180   18:10   0.20   87.7    29   19.6   207    24.4   1008.1    0.00 
 180   18:20   0.17   86.8    31   17.9   204    23.6   1008.1    0.00 
 180   18:30   0.14   85.3    34   19.1   200    23.2   1008.1    0.00 
 180   18:40   0.12   84.4    34   17.4   205    22.0   1008.1    0.00 
 180   18:50   0.09   83.6    35   17.6   205    22.9   1008.1    0.00 
 180   19:00   0.07   82.0    37   17.6   208    21.4   1008.5    0.00 
 180   19:10   0.05   80.6    39   16.8   206    21.8   1008.5    0.00 
 180   19:20   0.02   78.9    41   15.0   202    19.0   1008.8    0.00 
 180   19:30   0.01   77.3    43   14.7   198    19.3   1008.8    0.00 
 180   19:40   0.00   76.2    44   16.4   205    21.0   1009.1    0.00 
 180   19:50   0.00   75.1    45   16.9   202    20.2   1009.1    0.00 
 180   20:00   0.00   74.2    47   18.0   205    22.6   1009.1    0.00 
 180   20:10   0.00   73.3    48   18.9   205    23.2   1009.1    0.00 
 180   20:20   0.00   72.6    48   18.3   205    22.7   1009.1    0.00 
 180   20:30   0.00   71.7    50   17.5   203    22.2   1009.1    0.00 
 180   20:40   0.00   71.1    50   18.3   206    21.9   1009.5    0.00 
 180   20:50   0.00   70.5    51   16.8   203    21.7   1009.5    0.00 
 180   21:00   0.00   69.9    52   16.8   205    21.6   1009.5    0.00 
 180   21:10   0.00   69.4    51   16.1   210    20.3   1009.5    0.00 
 180   21:20   0.00   69.2    51   15.5   217    19.0   1009.5    0.00 
 180   21:30   0.00   68.2    51   15.2   217    18.5   1009.5    0.00 
 180   21:40   0.00   67.6    52   14.8   216    18.0   1009.5    0.00 
 180   21:50   0.00   67.3    52   15.4   217    20.1   1009.5    0.00 
 180   22:00   0.00   67.1    52   15.6   217    18.9   1009.5    0.00 
 180   22:10   0.00   66.9    53   16.5   215    20.0   1009.5    0.00 
 180   22:20   0.00   66.6    54   16.2   214    20.5   1009.5    0.00 
 180   22:30   0.00   66.3    55   17.0   216    20.4   1009.5    0.00 
 180   22:40   0.00   65.5    57   14.8   214    19.1   1009.1    0.00 
 180   22:50   0.00   64.9    58   15.6   217    20.6   1009.1    0.00 
 180   23:00   0.00   65.3    58   19.2   216    25.3   1009.1    0.00 
 180   23:10   0.00   65.2    58   19.1   216    27.1   1009.1    0.00 
 180   23:20   0.00   65.0    58   20.7   218    25.9   1009.1    0.00 
 180   23:30   0.00   65.1    58   20.2   219    25.7   1008.8    0.00 
 180   23:40   0.00   64.8    59   20.2   219    24.7   1008.8    0.00 
 180   23:50   0.00   64.5    60   20.6   219    26.5   1008.8    0.00 
 181    0:00   0.00   64.5    60   20.4   216    25.2   1008.8    0.00 
 181    0:10   0.00   64.7    60   20.4   218    26.0   1008.5    0.00 
 181    0:20   0.00   64.7    59   20.5   216    25.9   1008.5    0.00 
 181    0:30   0.00   64.4    60   21.0   216    26.7   1008.5    0.00 
 181    0:40   0.00   64.1    60   17.2   215    21.9   1008.5    0.00 
 181    0:50   0.00   64.9    58   19.3   215    24.5   1008.1    0.00 
 181    1:00   0.00   64.9    58   17.7   216    25.0   1008.1    0.00 
 181    1:10   0.00   63.7    61   17.2   211    21.0   1008.5    0.00 
 181    1:20   0.00   63.8    60   17.0   212    23.4   1008.5    0.00 
 181    1:30   0.00   63.0    62   16.9   214    21.5   1008.1    0.00 
 181    1:40   0.00   62.6    63   16.9   215    23.8   1008.1    0.00 
 181    1:50   0.00   62.8    63   16.4   211    21.3   1008.1    0.00 
 181    2:00   0.00   62.5    64   15.3   216    19.6   1008.1    0.00 
 181    2:10   0.00   62.4    64   18.1   220    24.0   1008.5    0.00 
 181    2:20   0.00   61.6    66   15.5   214    22.9   1008.5    0.00 
 181    2:30   0.00   60.8    68   15.5   215    20.9   1008.5    0.00 
 181    2:40   0.00   60.7    69   18.1   218    25.7   1008.1    0.00 
 181    2:50   0.00   60.3    71   19.9   219    25.6   1008.1    0.00 
 181    3:00   0.00   60.0    72   17.7   220    23.4   1008.1    0.00 
 181    3:10   0.00   59.7    72   16.3   219    20.5   1008.1    0.00 
 181    3:20   0.00   59.8    72   18.0   220    23.3   1008.1    0.00 
 181    3:30   0.00   60.1    73   20.2   220    27.6   1008.5    0.00 
 181    3:40   0.00   59.7    74   17.8   219    23.4   1008.5    0.00 
 181    3:50   0.00   59.4    74   13.7   215    20.0   1008.5    0.00 
 181    4:00   0.00   59.4    75   15.4   212    20.0   1008.1    0.00 
 181    4:10   0.00   59.0    79   14.6   212    19.0   1008.1    0.00 
 181    4:20   0.00   58.9    78   14.2   212    18.3   1008.5    0.00 
 181    4:30   0.00   59.0    79   14.3   206    19.7   1008.5    0.00 
 181    4:40   0.00   58.8    81   16.3   210    20.3   1008.5    0.00 
 181    4:50   0.00   58.7    80   16.9   211    21.4   1008.5    0.00 
 181    5:00   0.01   58.7    80   17.6   212    23.8   1008.5    0.00 
 181    5:10   0.02   58.7    78   17.4   214    22.4   1008.8    0.00 
 181    5:20   0.04   58.9    78   15.7   215    19.9   1008.8    0.00 
 181    5:30   0.07   59.1    77   16.9   219    21.9   1009.1    0.00 
 181    5:40   0.09   59.2    76   16.7   222    21.9   1009.1    0.00 
 181    5:50   0.12   59.8    75   15.7   220    19.8   1009.5    0.00 
 181    6:00   0.15   60.4    73   16.7   219    21.6   1009.5    0.00 
 181    6:10   0.17   60.4    71   19.9   221    24.5   1009.8    0.00 
 181    6:20   0.21   61.1    70   17.1   219    23.4   1009.8    0.00 
 181    6:30   0.24   62.0    68   15.7   222    23.7   1010.2    0.00 
 181    6:40   0.27   62.8    67   17.6   220    22.2   1010.2    0.00 
 181    6:50   0.30   63.1    65   19.2   222    23.8   1010.5    0.00 
 181    7:00   0.33   64.3    63   16.3   224    20.9   1010.5    0.00 
 181    7:10   0.36   65.4    61   16.7   228    20.4   1010.5    0.00 
 181    7:20   0.40   65.6    60   16.3   223    20.1   1010.8    0.00 
 181    7:30   0.43   66.8    58   17.6   222    21.9   1010.8    0.00 
 181    7:40   0.46   67.1    58   16.7   228    21.3   1011.2    0.00 
 181    7:50   0.49   67.6    57   16.5   229    20.5   1011.2    0.00 
 181    8:00   0.52   67.6    57   16.9   233    22.4   1011.2    0.00 
 181    8:10   0.56   68.0    56   18.2   231    22.4   1011.2    0.00 
 181    8:20   0.59   68.9    55   17.6   227    22.5   1011.2    0.00 
 181    8:30   0.62   69.2    54   19.1   226    22.7   1011.2    0.00 
 181    8:40   0.65   69.7    53   19.1   224    23.9   1011.5    0.00 
 181    8:50   0.68   70.4    52   19.4   221    23.9   1011.2    0.00 
 181    9:00   0.70   70.9    50   19.7   223    24.5   1011.2    0.00 
 181    9:10   0.73   71.7    50   18.6   219    23.4   1011.2    0.00 
 181    9:20   0.75   72.4    49   19.1   224    23.6   1011.2    0.00 
 181    9:30   0.77   72.6    48   19.6   222    23.2   1011.2    0.00 
 181    9:40   0.80   73.4    47   19.1   226    22.8   1011.5    0.00 
 181    9:50   0.82   75.0    45   17.8   221    23.1   1011.2    0.00 
 181   10:00   0.84   76.4    43   17.9   222    21.8   1011.2    0.00 
 181   10:10   0.86   77.3    42   17.6   229    21.2   1011.2    0.00 
 181   10:20   0.88   78.9    40   16.7   224    20.8   1011.2    0.00 
 181   10:30   0.89   79.7    40   16.7   227    20.8   1011.2    0.00 
 181   10:40   0.91   79.9    39   17.9   228    22.4   1011.2    0.00 
 181   10:50   0.92   80.7    39   18.3   229    23.0   1011.2    0.00 
 181   11:00   0.93   81.6    38   17.2   226    21.8   1011.2    0.00 
 181   11:10   0.94   82.1    38   17.1   224    21.9   1010.8    0.00 
 181   11:20   0.94   83.0    37   16.3   226    20.9   1010.8    0.00 
 181   11:30   0.95   83.9    36   15.8   221    20.0   1010.8    0.00 
 181   11:40   0.96   84.2    36   15.6   217    22.8   1010.8    0.00 
 181   11:50   0.97   85.2    35   15.3   211    19.1   1010.5    0.00 
 181   12:00   0.97   85.5    35   15.6   211    21.4   1010.5    0.00 
 181   12:10   0.97   85.9    34   16.0   214    21.1   1010.5    0.00 
 181   12:20   0.97   87.0    33   15.9   212    20.4   1010.5    0.00 
 181   12:30   0.97   87.1    33   15.9   208    20.5   1010.2    0.00 
 181   12:40   0.97   87.4    33   17.1   209    21.9   1010.2    0.00 
 181   12:50   0.96   87.3    33   17.6   214    23.3   1009.8    0.00 
 181   13:00   0.95   87.3    33   17.4   217    21.5   1009.8    0.00 
 181   13:10   0.94   87.7    33   18.1   219    24.0   1009.5    0.00 
 181   13:20   0.94   88.5    32   18.4   213    24.2   1009.5    0.00 
 181   13:30   0.93   88.9    32   17.1   209    21.7   1009.5    0.00 
 181   13:40   0.92   88.9    32   18.0   217    23.3   1009.1    0.00 
 181   13:50   0.90   89.1    32   18.8   211    23.4   1009.1    0.00 
 181   14:00   0.89   89.1    32   19.1   210    23.1   1009.1    0.00 
 181   14:10   0.87   89.8    31   18.2   206    22.7   1009.1    0.00 
 181   14:20   0.85   90.3    30   17.4   211    23.5   1008.8    0.00 
 181   14:30   0.84   90.3    30   17.9   216    23.5   1008.8    0.00 
 181   14:40   0.82   89.3    31   18.5   213    22.4   1008.8    0.00 
 181   14:50   0.80   88.9    32   18.9   220    24.4   1008.5    0.00 
 181   15:00   0.77   88.8    32   20.5   219    26.6   1008.5    0.00 
 181   15:10   0.75   88.5    32   20.8   215    26.2   1008.5    0.00 
 181   15:20   0.72   88.7    32   20.3   216    26.3   1008.5    0.00 
 181   15:30   0.70   87.9    34   19.7   219    24.3   1008.5    0.00 
 181   15:40   0.67   88.2    34   19.3   216    23.8   1008.1    0.00 
 181   15:50   0.64   87.9    34   20.8   222    28.4   1008.1    0.00 
 181   16:00   0.61   87.2    35   21.7   209    26.7   1007.8    0.00 

Return to Jepson Prairie Reserve graphs page.


Western Regional Climate Center,wrcc@dri.edu